Time;durP1;ratioP1;P1;durP2;ratioP2;P2;SDS_P1;SDS_P2;PMS_P1;PMS_P2;Temp;Humidity;BMP_temperature;BMP_pressure;BME280_temperature;BME280_humidity;BME280_pressure;Samples;Min_cycle;Max_cycle;Signal;HPM_P1;HPM_P2
2022/12/11 00:00:58;;;;;;;54.80;20.13;;;;;;;;;;5028307;28;20144;-62
2022/12/11 00:03:24;;;;;;;60.63;20.83;;;;;;;;;;5008131;28;20124;-62
2022/12/11 00:05:50;;;;;;;53.53;20.13;;;;;;;;;;5007679;28;20465;-62
2022/12/11 00:08:16;;;;;;;52.95;19.85;;;;;;;;;;5008345;28;20125;-62
2022/12/11 00:10:48;;;;;;;58.58;20.25;;;;;;;;;;5025186;28;20124;-62
2022/12/11 00:13:14;;;;;;;60.70;20.75;;;;;;;;;;5029323;28;20065;-62
2022/12/11 00:15:40;;;;;;;61.88;20.70;;;;;;;;;;5031991;28;20102;-62
2022/12/11 00:18:07;;;;;;;59.58;20.15;;;;;;;;;;5024299;28;20529;-63
2022/12/11 00:20:33;;;;;;;55.22;19.40;;;;;;;;;;5031588;28;20060;-62
2022/12/11 00:22:59;;;;;;;53.35;18.92;;;;;;;;;;5031919;28;20472;-62
2022/12/11 00:25:25;;;;;;;65.78;20.60;;;;;;;;;;5031959;28;20033;-62
2022/12/11 00:27:51;;;;;;;63.67;19.45;;;;;;;;;;5031747;28;20096;-62
2022/12/11 00:30:17;;;;;;;61.28;19.58;;;;;;;;;;5032006;28;20241;-62
2022/12/11 00:32:43;;;;;;;54.67;18.63;;;;;;;;;;5031611;28;20044;-62
2022/12/11 00:35:09;;;;;;;62.80;20.40;;;;;;;;;;5031408;28;20407;-62
2022/12/11 00:37:35;;;;;;;58.78;20.52;;;;;;;;;;5031502;28;20049;-62
2022/12/11 00:40:01;;;;;;;60.70;20.15;;;;;;;;;;5031590;28;20052;-62
2022/12/11 00:42:27;;;;;;;64.30;19.10;;;;;;;;;;5031218;28;20392;-62
2022/12/11 00:44:55;;;;;;;50.90;18.60;;;;;;;;;;5031631;28;20033;-62
2022/12/11 00:47:21;;;;;;;52.67;18.20;;;;;;;;;;5031483;28;20045;-62
2022/12/11 00:49:47;;;;;;;50.85;18.25;;;;;;;;;;5031236;28;20040;-62
2022/12/11 00:52:13;;;;;;;59.33;18.95;;;;;;;;;;5030044;28;20613;-62
2022/12/11 00:54:39;;;;;;;57.90;19.77;;;;;;;;;;5031658;28;20120;-62
2022/12/11 00:57:05;;;;;;;58.75;19.80;;;;;;;;;;5031415;28;20037;-62
2022/12/11 00:59:31;;;;;;;60.67;19.98;;;;;;;;;;5030901;28;20328;-63
2022/12/11 01:01:57;;;;;;;64.57;20.75;;;;;;;;;;5031285;28;20362;-62
2022/12/11 01:04:23;;;;;;;58.92;20.67;;;;;;;;;;5031235;28;20037;-62
2022/12/11 01:06:49;;;;;;;74.32;20.88;;;;;;;;;;5030941;28;20037;-62
2022/12/11 01:12:00;;;;;;;55.78;19.13;;;;;;;;;;5031123;28;20045;-62
2022/12/11 01:14:26;;;;;;;61.88;19.92;;;;;;;;;;5030507;28;20053;-62
2022/12/11 01:16:52;;;;;;;63.78;19.73;;;;;;;;;;5030976;28;20048;-62
2022/12/11 01:19:18;;;;;;;70.93;21.95;;;;;;;;;;5031196;28;20087;-62
2022/12/11 01:21:44;;;;;;;62.67;19.98;;;;;;;;;;5030775;28;20502;-62
2022/12/11 01:24:10;;;;;;;61.33;19.30;;;;;;;;;;5029629;28;20056;-62
2022/12/11 01:26:36;;;;;;;59.42;19.08;;;;;;;;;;5030923;28;20037;-62
2022/12/11 01:29:02;;;;;;;65.60;19.35;;;;;;;;;;5030333;28;20217;-62
2022/12/11 01:31:28;;;;;;;56.75;18.83;;;;;;;;;;5030690;28;20080;-62
2022/12/11 01:33:55;;;;;;;54.40;19.80;;;;;;;;;;5030822;28;20464;-62
2022/12/11 01:36:21;;;;;;;62.53;18.45;;;;;;;;;;5030246;28;20507;-62
2022/12/11 01:38:48;;;;;;;58.35;19.35;;;;;;;;;;5030718;28;20131;-62
2022/12/11 01:41:15;;;;;;;52.65;18.30;;;;;;;;;;5030703;28;20410;-62
2022/12/11 01:43:56;;;;;;;53.35;18.90;;;;;;;;;;5030316;28;20411;-62
2022/12/11 01:46:22;;;;;;;60.60;18.83;;;;;;;;;;5030452;28;20038;-62
2022/12/11 01:48:48;;;;;;;53.65;18.88;;;;;;;;;;5030173;28;20103;-62
2022/12/11 01:51:14;;;;;;;52.88;18.27;;;;;;;;;;5029967;28;20045;-62
2022/12/11 01:53:43;;;;;;;60.00;19.17;;;;;;;;;;5030716;28;20051;-62
2022/12/11 01:56:09;;;;;;;57.03;17.58;;;;;;;;;;5030337;28;20041;-62
2022/12/11 01:58:39;;;;;;;59.38;19.13;;;;;;;;;;5029588;28;20034;-62
2022/12/11 02:01:06;;;;;;;57.53;20.70;;;;;;;;;;5030227;28;20037;-62
2022/12/11 02:03:32;;;;;;;51.35;18.65;;;;;;;;;;5028688;28;20428;-62
2022/12/11 02:06:01;;;;;;;61.78;19.98;;;;;;;;;;5029780;28;20396;-62
2022/12/11 02:08:28;;;;;;;57.92;19.17;;;;;;;;;;5030154;28;20496;-62
2022/12/11 02:11:11;;;;;;;49.60;17.25;;;;;;;;;;5029958;28;20121;-62
2022/12/11 02:13:37;;;;;;;57.97;18.83;;;;;;;;;;5029411;28;20053;-62
2022/12/11 02:16:06;;;;;;;56.75;18.90;;;;;;;;;;5030047;28;20399;-62
2022/12/11 02:18:32;;;;;;;63.10;19.63;;;;;;;;;;5029661;28;20603;-62
2022/12/11 02:21:14;;;;;;;55.95;18.73;;;;;;;;;;5029769;28;20038;-62
2022/12/11 02:23:43;;;;;;;53.33;16.63;;;;;;;;;;5029891;28;20087;-62
2022/12/11 02:26:21;;;;;;;61.90;18.35;;;;;;;;;;5029205;28;20130;-62
2022/12/11 02:28:53;;;;;;;54.10;17.42;;;;;;;;;;5029860;28;20259;-62
2022/12/11 02:31:28;;;;;;;58.08;16.42;;;;;;;;;;5029689;28;20060;-62
2022/12/11 02:34:00;;;;;;;51.63;19.00;;;;;;;;;;5029215;28;20110;-62
2022/12/11 02:36:28;;;;;;;53.60;17.92;;;;;;;;;;5029193;28;20045;-62
2022/12/11 02:38:55;;;;;;;57.50;18.40;;;;;;;;;;5029741;28;20501;-62
2022/12/11 02:41:22;;;;;;;55.58;18.25;;;;;;;;;;5028992;28;20043;-62
2022/12/11 02:43:48;;;;;;;55.92;18.23;;;;;;;;;;5029579;28;20034;-62
2022/12/11 02:46:16;;;;;;;65.22;18.98;;;;;;;;;;5029248;28;20479;-62
2022/12/11 02:48:42;;;;;;;54.42;18.40;;;;;;;;;;5028879;28;20126;-62
2022/12/11 02:51:09;;;;;;;54.40;18.42;;;;;;;;;;5029262;28;20060;-62
2022/12/11 02:53:37;;;;;;;60.63;18.65;;;;;;;;;;5029131;28;20056;-62
2022/12/11 02:56:10;;;;;;;56.72;17.65;;;;;;;;;;5028919;28;20459;-62
2022/12/11 02:58:38;;;;;;;59.30;19.38;;;;;;;;;;5029258;28;20041;-62
2022/12/11 03:01:04;;;;;;;61.15;18.67;;;;;;;;;;5029036;28;20037;-62
2022/12/11 03:03:30;;;;;;;59.45;18.00;;;;;;;;;;5028961;28;20435;-62
2022/12/11 03:05:56;;;;;;;56.80;18.23;;;;;;;;;;5029155;28;20454;-62
2022/12/11 03:08:22;;;;;;;60.25;19.02;;;;;;;;;;5029244;28;20063;-62
2022/12/11 03:10:48;;;;;;;61.55;20.10;;;;;;;;;;5028474;28;20038;-62
2022/12/11 03:13:17;;;;;;;61.72;18.33;;;;;;;;;;5028922;28;20065;-62
2022/12/11 03:15:51;;;;;;;59.72;18.45;;;;;;;;;;5028820;28;20053;-62
2022/12/11 03:18:26;;;;;;;55.63;17.33;;;;;;;;;;5028698;28;20050;-62
2022/12/11 03:21:04;;;;;;;59.00;17.73;;;;;;;;;;5029094;28;20418;-62
2022/12/11 03:23:33;;;;;;;51.35;17.17;;;;;;;;;;5029407;28;20041;-62
2022/12/11 03:26:03;;;;;;;53.33;17.70;;;;;;;;;;5028556;28;20048;-62
2022/12/11 03:28:39;;;;;;;61.28;18.65;;;;;;;;;;5028962;28;20095;-62
2022/12/11 03:31:09;;;;;;;53.63;18.02;;;;;;;;;;5028822;28;20063;-62
2022/12/11 03:33:40;;;;;;;60.22;19.15;;;;;;;;;;5028631;28;20045;-62
2022/12/11 03:36:09;;;;;;;60.08;19.38;;;;;;;;;;5028951;28;20099;-62
2022/12/11 03:38:38;;;;;;;60.45;18.35;;;;;;;;;;5028930;28;20399;-62
2022/12/11 03:41:05;;;;;;;62.13;18.67;;;;;;;;;;5028523;28;20578;-62
2022/12/11 03:43:32;;;;;;;56.78;18.90;;;;;;;;;;5029082;28;20480;-62
2022/12/11 03:45:58;;;;;;;54.30;18.35;;;;;;;;;;5028698;28;20489;-62
2022/12/11 03:48:26;;;;;;;57.45;19.60;;;;;;;;;;5031042;28;20041;-62
2022/12/11 03:50:53;;;;;;;62.38;19.85;;;;;;;;;;5032674;28;20041;-62
2022/12/11 03:53:19;;;;;;;64.03;19.08;;;;;;;;;;5032709;28;20041;-62
2022/12/11 03:55:47;;;;;;;60.65;20.10;;;;;;;;;;5032268;28;20134;-62
2022/12/11 03:58:13;;;;;;;61.42;18.17;;;;;;;;;;5032348;28;20052;-62
2022/12/11 04:00:39;;;;;;;63.90;19.95;;;;;;;;;;5032770;28;20391;-62
2022/12/11 04:03:11;;;;;;;53.55;17.55;;;;;;;;;;5032402;28;20060;-62
2022/12/11 04:05:37;;;;;;;68.35;19.77;;;;;;;;;;5031402;28;20367;-62
2022/12/11 04:08:03;;;;;;;61.28;20.63;;;;;;;;;;5032451;28;20041;-62
2022/12/11 04:10:29;;;;;;;59.15;20.83;;;;;;;;;;5031915;28;20041;-62
2022/12/11 04:12:55;;;;;;;65.57;21.17;;;;;;;;;;5032031;28;20261;-62
2022/12/11 04:15:21;;;;;;;61.70;19.02;;;;;;;;;;5031931;28;20049;-62
2022/12/11 04:26:10;;;;;;;56.05;18.73;;;;;;;;;;5031413;28;20038;-62
2022/12/11 04:28:36;;;;;;;64.93;19.98;;;;;;;;;;5032110;28;20399;-62
2022/12/11 04:31:03;;;;;;;61.90;19.95;;;;;;;;;;5032075;28;20050;-62
2022/12/11 04:33:29;;;;;;;59.67;19.45;;;;;;;;;;5031303;28;20045;-62
2022/12/11 04:35:57;;;;;;;59.75;18.85;;;;;;;;;;5032040;28;20087;-62
2022/12/11 04:38:23;;;;;;;56.22;20.35;;;;;;;;;;5031854;28;20045;-62
2022/12/11 04:40:49;;;;;;;62.10;19.40;;;;;;;;;;5031479;28;20051;-62
2022/12/11 04:43:15;;;;;;;65.20;20.70;;;;;;;;;;5030646;28;20479;-62
2022/12/11 04:45:41;;;;;;;60.10;19.60;;;;;;;;;;5031720;28;20041;-62
2022/12/11 04:48:07;;;;;;;55.75;18.75;;;;;;;;;;5031350;28;20356;-62
2022/12/11 04:50:33;;;;;;;59.08;18.60;;;;;;;;;;5031584;28;20041;-62
2022/12/11 04:52:59;;;;;;;59.08;19.02;;;;;;;;;;5031147;28;20132;-62
2022/12/11 04:55:25;;;;;;;58.22;19.63;;;;;;;;;;5031293;28;20183;-62
2022/12/11 04:57:51;;;;;;;53.88;18.08;;;;;;;;;;5031834;28;20045;-62
2022/12/11 05:00:17;;;;;;;55.15;19.50;;;;;;;;;;5031010;28;20033;-62
2022/12/11 05:02:43;;;;;;;57.95;19.80;;;;;;;;;;5030905;28;20395;-62
2022/12/11 05:05:10;;;;;;;51.35;18.13;;;;;;;;;;5031567;28;20479;-62
2022/12/11 05:07:36;;;;;;;54.85;17.83;;;;;;;;;;5031233;28;20045;-62
2022/12/11 05:10:03;;;;;;;53.15;18.83;;;;;;;;;;5030943;28;20125;-62
2022/12/11 05:12:29;;;;;;;59.47;19.70;;;;;;;;;;5030728;28;20045;-62
2022/12/11 05:14:54;;;;;;;61.35;19.13;;;;;;;;;;5030717;28;20063;-62
2022/12/11 05:17:21;;;;;;;62.20;19.33;;;;;;;;;;5030437;28;20041;-62
2022/12/11 05:19:48;;;;;;;57.72;18.92;;;;;;;;;;5031266;28;20037;-62
2022/12/11 05:22:14;;;;;;;58.35;19.23;;;;;;;;;;5029402;28;20045;-62
2022/12/11 05:24:40;;;;;;;50.10;17.55;;;;;;;;;;5030766;28;20040;-62
2022/12/11 05:27:06;;;;;;;57.88;19.65;;;;;;;;;;5030883;28;20049;-62
2022/12/11 05:29:32;;;;;;;61.22;19.70;;;;;;;;;;5031018;28;20120;-62
2022/12/11 05:31:58;;;;;;;56.35;18.60;;;;;;;;;;5030387;28;20125;-62
2022/12/11 05:34:24;;;;;;;53.10;19.30;;;;;;;;;;5030597;28;20045;-62
2022/12/11 05:36:50;;;;;;;55.78;18.38;;;;;;;;;;5030606;28;20068;-62
2022/12/11 05:39:16;;;;;;;52.38;17.80;;;;;;;;;;5030381;28;20037;-62
2022/12/11 05:41:42;;;;;;;55.85;18.58;;;;;;;;;;5030579;28;20175;-62
2022/12/11 05:44:11;;;;;;;53.65;19.02;;;;;;;;;;5030551;28;20042;-62
2022/12/11 05:46:37;;;;;;;62.13;18.80;;;;;;;;;;5030198;28;20111;-62
2022/12/11 05:49:03;;;;;;;59.03;18.80;;;;;;;;;;5030584;28;20041;-62
2022/12/11 05:51:29;;;;;;;52.38;18.33;;;;;;;;;;5030282;28;20037;-62
2022/12/11 05:53:56;;;;;;;56.97;18.63;;;;;;;;;;5030042;28;20075;-62
2022/12/11 05:56:27;;;;;;;51.22;18.52;;;;;;;;;;5030691;28;20045;-62
2022/12/11 05:58:53;;;;;;;58.20;18.85;;;;;;;;;;5030321;28;20045;-62
2022/12/11 06:01:27;;;;;;;51.88;18.75;;;;;;;;;;5029865;28;20765;-62
2022/12/11 06:03:54;;;;;;;50.33;19.13;;;;;;;;;;5030402;28;20048;-62
2022/12/11 06:06:20;;;;;;;61.85;19.75;;;;;;;;;;5029929;28;20042;-62
2022/12/11 06:08:49;;;;;;;50.80;17.23;;;;;;;;;;5029549;28;20049;-62
2022/12/11 06:11:14;;;;;;;58.63;20.38;;;;;;;;;;5029460;28;20191;-62
2022/12/11 06:13:40;;;;;;;54.63;18.85;;;;;;;;;;5029790;28;20563;-62
2022/12/11 06:16:07;;;;;;;55.08;17.77;;;;;;;;;;5029657;28;20049;-62
2022/12/11 06:18:37;;;;;;;60.22;18.55;;;;;;;;;;5029820;28;20050;-62
2022/12/11 06:21:11;;;;;;;49.65;17.60;;;;;;;;;;5029742;28;20060;-62
2022/12/11 06:23:37;;;;;;;57.63;18.40;;;;;;;;;;5029539;28;20037;-62
2022/12/11 06:26:03;;;;;;;54.80;18.45;;;;;;;;;;5029775;28;20049;-62
2022/12/11 06:28:29;;;;;;;52.28;18.23;;;;;;;;;;5029671;28;20411;-62
2022/12/11 06:30:58;;;;;;;48.58;17.17;;;;;;;;;;5029357;28;20116;-62
2022/12/11 06:33:24;;;;;;;54.95;18.38;;;;;;;;;;5029528;28;20045;-62
2022/12/11 06:35:50;;;;;;;55.92;20.10;;;;;;;;;;5029824;28;20057;-62
2022/12/11 06:38:16;;;;;;;45.42;17.75;;;;;;;;;;5029170;28;20096;-62
2022/12/11 06:40:43;;;;;;;55.83;18.73;;;;;;;;;;5029266;28;20047;-62
2022/12/11 06:43:09;;;;;;;54.33;17.83;;;;;;;;;;5029363;28;20377;-62
2022/12/11 06:45:36;;;;;;;55.35;18.23;;;;;;;;;;5029131;28;20041;-62
2022/12/11 06:48:03;;;;;;;53.30;19.17;;;;;;;;;;5029331;28;20466;-62
2022/12/11 06:50:28;;;;;;;53.55;17.88;;;;;;;;;;5029500;28;20328;-62
2022/12/11 06:52:55;;;;;;;58.60;18.40;;;;;;;;;;5028661;28;20529;-62
2022/12/11 06:55:21;;;;;;;53.65;17.70;;;;;;;;;;5029498;28;20042;-62
2022/12/11 06:57:47;;;;;;;49.35;17.85;;;;;;;;;;5029270;28;20037;-62
2022/12/11 07:00:13;;;;;;;58.90;18.58;;;;;;;;;;5029134;28;20044;-62
2022/12/11 07:02:39;;;;;;;53.92;19.13;;;;;;;;;;5029116;28;20490;-62
2022/12/11 07:05:05;;;;;;;58.95;20.08;;;;;;;;;;5029263;28;20041;-62
2022/12/11 07:07:32;;;;;;;57.92;18.65;;;;;;;;;;5028985;28;20052;-62
2022/12/11 07:09:58;;;;;;;59.70;19.73;;;;;;;;;;5029322;28;20430;-62
2022/12/11 07:12:24;;;;;;;55.17;17.45;;;;;;;;;;5028795;28;20043;-62
2022/12/11 07:14:50;;;;;;;51.03;18.77;;;;;;;;;;5028267;28;20145;-62
2022/12/11 07:17:16;;;;;;;54.25;17.73;;;;;;;;;;5029033;28;20124;-62
2022/12/11 07:19:43;;;;;;;56.65;18.48;;;;;;;;;;5029435;28;20049;-62
2022/12/11 07:22:09;;;;;;;54.63;18.40;;;;;;;;;;5030139;28;20042;-62
2022/12/11 07:24:35;;;;;;;61.72;19.65;;;;;;;;;;5032978;28;20099;-62
2022/12/11 07:27:01;;;;;;;56.17;19.42;;;;;;;;;;5033162;28;20041;-62
2022/12/11 07:29:27;;;;;;;60.83;19.00;;;;;;;;;;5032687;28;20041;-62
2022/12/11 07:31:53;;;;;;;54.65;18.30;;;;;;;;;;5032735;28;20145;-62
2022/12/11 07:34:19;;;;;;;60.08;19.27;;;;;;;;;;5032755;28;20087;-62
2022/12/11 07:36:45;;;;;;;59.15;18.92;;;;;;;;;;5033134;28;20046;-62
2022/12/11 07:39:11;;;;;;;53.45;18.02;;;;;;;;;;5032809;28;20112;-62
2022/12/11 07:41:38;;;;;;;53.20;18.63;;;;;;;;;;5032735;28;20033;-62
2022/12/11 07:44:04;;;;;;;53.78;19.00;;;;;;;;;;5033045;28;20396;-62
2022/12/11 07:46:31;;;;;;;50.25;19.15;;;;;;;;;;5032263;28;20048;-62
2022/12/11 07:48:57;;;;;;;52.47;17.73;;;;;;;;;;5032544;28;20052;-62
2022/12/11 07:51:27;;;;;;;54.65;17.52;;;;;;;;;;5032774;28;20048;-62
2022/12/11 07:53:55;;;;;;;54.03;17.75;;;;;;;;;;5032352;28;20042;-62
2022/12/11 07:56:21;;;;;;;51.88;17.73;;;;;;;;;;5032855;28;20040;-62
2022/12/11 07:58:47;;;;;;;53.15;17.42;;;;;;;;;;5032419;28;20042;-62
2022/12/11 08:01:20;;;;;;;50.75;19.23;;;;;;;;;;5032090;28;20412;-62
2022/12/11 08:03:46;;;;;;;56.03;18.30;;;;;;;;;;5032374;28;20076;-62
2022/12/11 08:06:12;;;;;;;54.50;18.52;;;;;;;;;;5032379;28;20049;-62
2022/12/11 08:08:40;;;;;;;57.08;18.15;;;;;;;;;;5032043;28;20037;-62
2022/12/11 08:11:07;;;;;;;52.40;18.17;;;;;;;;;;5030832;28;20041;-62
2022/12/11 08:13:33;;;;;;;52.75;17.50;;;;;;;;;;5032159;28;20057;-62
2022/12/11 08:16:02;;;;;;;56.50;18.13;;;;;;;;;;5031977;28;20085;-62
2022/12/11 08:18:29;;;;;;;49.47;17.25;;;;;;;;;;5030622;28;20053;-62
2022/12/11 08:20:56;;;;;;;57.03;19.65;;;;;;;;;;5032065;28;20126;-62
2022/12/11 08:23:22;;;;;;;57.50;18.55;;;;;;;;;;5031511;28;20495;-62
2022/12/11 08:25:48;;;;;;;61.03;20.95;;;;;;;;;;5031640;28;20045;-62
2022/12/11 08:28:14;;;;;;;48.63;18.75;;;;;;;;;;5031894;28;20123;-62
2022/12/11 08:30:40;;;;;;;52.35;18.35;;;;;;;;;;5031358;28;20473;-62
2022/12/11 08:33:06;;;;;;;56.90;19.48;;;;;;;;;;5031319;28;20053;-62
2022/12/11 08:35:32;;;;;;;57.80;19.88;;;;;;;;;;5031787;28;20128;-62
2022/12/11 08:37:58;;;;;;;54.00;19.30;;;;;;;;;;5031444;28;20128;-62
2022/12/11 08:40:24;;;;;;;56.17;20.33;;;;;;;;;;5031694;28;20033;-62
2022/12/11 08:42:51;;;;;;;54.53;20.17;;;;;;;;;;5031536;28;20483;-62
2022/12/11 08:45:17;;;;;;;56.80;18.15;;;;;;;;;;5031331;28;20042;-62
2022/12/11 08:47:43;;;;;;;55.03;19.77;;;;;;;;;;5031494;28;20049;-62
2022/12/11 08:50:09;;;;;;;56.80;19.60;;;;;;;;;;5031478;28;20391;-62
2022/12/11 08:52:35;;;;;;;59.33;18.55;;;;;;;;;;5031191;28;20088;-62
2022/12/11 08:55:01;;;;;;;55.67;17.65;;;;;;;;;;5031493;28;20124;-62
2022/12/11 08:57:27;;;;;;;50.13;17.92;;;;;;;;;;5031159;28;20038;-62
2022/12/11 08:59:53;;;;;;;55.17;19.48;;;;;;;;;;5030661;28;20048;-62
2022/12/11 09:02:19;;;;;;;57.03;19.80;;;;;;;;;;5031336;28;20037;-62
2022/12/11 09:04:45;;;;;;;63.30;21.75;;;;;;;;;;5030122;28;20072;-62
2022/12/11 09:07:11;;;;;;;57.20;20.88;;;;;;;;;;5030989;28;20041;-62
2022/12/11 09:09:37;;;;;;;59.75;23.25;;;;;;;;;;5031126;28;20064;-62
2022/12/11 09:12:03;;;;;;;65.35;22.48;;;;;;;;;;5030850;28;20061;-62
2022/12/11 09:14:30;;;;;;;47.20;18.63;;;;;;;;;;5030197;28;20061;-62
2022/12/11 09:16:56;;;;;;;55.13;19.13;;;;;;;;;;5030979;28;20053;-62
2022/12/11 09:19:22;;;;;;;57.42;20.25;;;;;;;;;;5030881;28;20068;-62
2022/12/11 09:21:48;;;;;;;53.90;20.50;;;;;;;;;;5030532;28;20088;-62
2022/12/11 09:24:14;;;;;;;52.13;19.08;;;;;;;;;;5031125;28;20439;-62
2022/12/11 09:26:40;;;;;;;46.92;18.08;;;;;;;;;;5030517;28;20056;-62
2022/12/11 09:29:07;;;;;;;51.95;19.65;;;;;;;;;;5030747;28;20033;-62
2022/12/11 09:31:34;;;;;;;53.88;19.00;;;;;;;;;;5029246;28;20044;-62
2022/12/11 09:34:03;;;;;;;52.60;20.10;;;;;;;;;;5031173;28;20044;-62
2022/12/11 09:36:29;;;;;;;52.83;19.05;;;;;;;;;;5030289;28;20029;-62
2022/12/11 09:38:55;;;;;;;52.20;19.38;;;;;;;;;;5030525;28;20041;-62
2022/12/11 09:41:21;;;;;;;53.78;20.23;;;;;;;;;;5030431;28;20128;-62
2022/12/11 09:44:06;;;;;;;55.55;20.25;;;;;;;;;;5030285;28;20583;-62
2022/12/11 09:46:33;;;;;;;61.78;20.60;;;;;;;;;;5029484;28;20094;-62
2022/12/11 09:49:01;;;;;;;56.78;21.00;;;;;;;;;;5030714;28;20052;-62
2022/12/11 09:51:47;;;;;;;52.20;19.05;;;;;;;;;;5030008;28;20132;-62
2022/12/11 09:54:13;;;;;;;52.78;19.83;;;;;;;;;;5030090;28;20132;-62
2022/12/11 09:56:45;;;;;;;60.15;21.25;;;;;;;;;;5030235;28;20117;-62
2022/12/11 09:59:26;;;;;;;53.20;19.35;;;;;;;;;;5029763;28;20073;-62
2022/12/11 10:01:52;;;;;;;54.08;19.65;;;;;;;;;;5030126;28;20069;-62
2022/12/11 10:04:21;;;;;;;54.42;19.25;;;;;;;;;;5030091;28;20069;-62
2022/12/11 10:06:51;;;;;;;46.45;18.55;;;;;;;;;;5029664;28;20042;-62
2022/12/11 10:09:33;;;;;;;55.20;19.85;;;;;;;;;;5029899;28;20086;-62
2022/12/11 10:11:59;;;;;;;48.20;17.50;;;;;;;;;;5029984;28;20087;-62
2022/12/11 10:14:37;;;;;;;51.72;18.15;;;;;;;;;;5029322;28;20042;-62
2022/12/11 10:17:15;;;;;;;52.35;18.83;;;;;;;;;;5029904;28;20438;-62
2022/12/11 10:19:41;;;;;;;48.10;17.38;;;;;;;;;;5029562;28;20238;-62
2022/12/11 10:22:13;;;;;;;47.70;17.60;;;;;;;;;;5029775;28;20403;-62
2022/12/11 10:24:39;;;;;;;53.03;19.42;;;;;;;;;;5029913;28;20121;-62
2022/12/11 10:27:13;;;;;;;59.03;19.83;;;;;;;;;;5029239;28;20513;-62
2022/12/11 10:29:39;;;;;;;52.42;18.67;;;;;;;;;;5029693;28;20046;-62
2022/12/11 10:32:11;;;;;;;50.40;18.23;;;;;;;;;;5029801;28;20041;-62
2022/12/11 10:34:37;;;;;;;;;;;;;;;;;;5029800;28;20056;-62
2022/12/11 10:37:03;;;;;;;52.72;18.10;;;;;;;;;;5029818;28;19925;-62
2022/12/11 10:39:29;;;;;;;50.08;17.70;;;;;;;;;;5029537;28;20075;-62
2022/12/11 10:41:56;;;;;;;52.92;18.23;;;;;;;;;;5028728;28;20483;-62
2022/12/11 10:44:24;;;;;;;49.53;19.17;;;;;;;;;;5029664;28;20077;-62
2022/12/11 10:47:09;;;;;;;50.42;18.17;;;;;;;;;;5029370;28;20049;-62
2022/12/11 10:49:36;;;;;;;46.97;18.05;;;;;;;;;;5029064;28;20077;-62
2022/12/11 10:52:08;;;;;;;50.25;18.30;;;;;;;;;;5029233;28;20435;-62
2022/12/11 10:54:37;;;;;;;58.70;20.30;;;;;;;;;;5029234;28;20037;-62
2022/12/11 10:57:03;;;;;;;54.13;19.80;;;;;;;;;;5028625;28;20483;-62
2022/12/11 10:59:32;;;;;;;50.38;19.42;;;;;;;;;;5029584;28;20396;-62
2022/12/11 11:01:58;;;;;;;50.53;18.67;;;;;;;;;;5028786;28;20116;-62
2022/12/11 11:04:30;;;;;;;54.03;20.83;;;;;;;;;;5028914;28;20045;-62
2022/12/11 11:07:22;;;;;;;48.67;18.80;;;;;;;;;;5029169;28;20499;-62
2022/12/11 11:09:49;;;;;;;55.70;18.23;;;;;;;;;;5027620;28;20053;-62
2022/12/11 11:12:26;;;;;;;55.53;19.38;;;;;;;;;;5028846;28;20041;-62
2022/12/11 11:15:06;;;;;;;51.40;18.92;;;;;;;;;;5028850;28;20062;-62
2022/12/11 11:17:33;;;;;;;54.88;19.42;;;;;;;;;;5028783;28;20041;-62
2022/12/11 11:20:03;;;;;;;53.70;18.92;;;;;;;;;;5028722;28;20041;-62
2022/12/11 11:22:31;;;;;;;55.83;19.02;;;;;;;;;;5029059;28;20060;-62
2022/12/11 11:24:58;;;;;;;58.85;18.90;;;;;;;;;;5029050;28;20121;-62
2022/12/11 11:27:30;;;;;;;59.75;21.95;;;;;;;;;;5028696;28;20452;-62
2022/12/11 11:30:09;;;;;;;59.08;21.20;;;;;;;;;;5029055;28;20080;-62
2022/12/11 11:32:39;;;;;;;61.28;20.42;;;;;;;;;;5028942;28;20049;-62
2022/12/11 11:35:13;;;;;;;55.58;20.00;;;;;;;;;;5028666;28;20083;-62
2022/12/11 11:37:41;;;;;;;52.63;19.55;;;;;;;;;;5028475;28;20081;-62
2022/12/11 11:40:15;;;;;;;52.22;21.00;;;;;;;;;;5028559;28;20042;-62
2022/12/11 11:43:00;;;;;;;55.35;20.90;;;;;;;;;;5028405;28;20527;-62
2022/12/11 11:45:30;;;;;;;58.15;21.23;;;;;;;;;;5029167;28;20048;-62
2022/12/11 11:48:16;;;;;;;57.90;21.48;;;;;;;;;;5028678;28;20087;-62
2022/12/11 11:50:45;;;;;;;52.22;19.15;;;;;;;;;;5028230;28;20085;-63
2022/12/11 11:53:18;;;;;;;52.80;19.40;;;;;;;;;;5028809;28;20060;-62
2022/12/11 11:56:02;;;;;;;52.47;19.65;;;;;;;;;;5028860;28;20128;-61
2022/12/11 11:58:58;;;;;;;55.40;20.10;;;;;;;;;;5028697;28;20052;-61
2022/12/11 12:01:24;;;;;;;54.53;20.25;;;;;;;;;;5023365;28;20046;-61
2022/12/11 12:03:51;;;;;;;56.28;20.48;;;;;;;;;;5028444;28;20045;-61
2022/12/11 12:06:26;;;;;;;54.30;19.50;;;;;;;;;;5027225;28;20056;-61
2022/12/11 12:08:52;;;;;;;45.00;18.15;;;;;;;;;;5029502;28;20095;-61
2022/12/11 12:11:28;;;;;;;57.60;20.35;;;;;;;;;;5031806;28;20526;-61
2022/12/11 12:14:13;;;;;;;51.78;19.98;;;;;;;;;;5030814;28;20510;-61
2022/12/11 12:17:01;;;;;;;53.33;19.33;;;;;;;;;;5032166;28;20411;-62
2022/12/11 12:19:27;;;;;;;52.80;19.88;;;;;;;;;;5031815;28;20120;-62
2022/12/11 12:21:53;;;;;;;51.90;18.15;;;;;;;;;;5031755;28;20125;-62
2022/12/11 12:24:28;;;;;;;60.50;19.48;;;;;;;;;;5032228;28;20577;-62
2022/12/11 12:27:00;;;;;;;55.92;19.95;;;;;;;;;;5030588;28;20522;-62
2022/12/11 12:29:34;;;;;;;58.40;20.40;;;;;;;;;;5032190;28;20438;-62
2022/12/11 12:32:24;;;;;;;52.88;20.00;;;;;;;;;;5031649;28;20078;-62
2022/12/11 12:35:08;;;;;;;56.70;19.95;;;;;;;;;;5031601;28;20437;-62
2022/12/11 12:37:47;;;;;;;52.20;19.50;;;;;;;;;;5031887;28;20120;-62
2022/12/11 12:40:31;;;;;;;53.05;20.40;;;;;;;;;;5031761;28;20038;-62
2022/12/11 12:43:07;;;;;;;51.42;18.63;;;;;;;;;;5031680;28;20038;-62
2022/12/11 12:45:37;;;;;;;55.80;21.52;;;;;;;;;;5031648;28;20041;-62
2022/12/11 12:48:03;;;;;;;60.42;21.50;;;;;;;;;;5031192;28;20095;-62
2022/12/11 12:50:36;;;;;;;56.22;20.88;;;;;;;;;;5031664;28;20569;-62
2022/12/11 12:53:04;;;;;;;58.08;21.48;;;;;;;;;;5031500;28;20045;-62
2022/12/11 12:55:31;;;;;;;57.55;21.08;;;;;;;;;;5031185;28;20056;-62
2022/12/11 12:57:56;;;;;;;60.28;21.50;;;;;;;;;;5031386;28;20049;-62
2022/12/11 13:00:27;;;;;;;57.88;20.75;;;;;;;;;;5031407;28;20430;-62
2022/12/11 13:02:54;;;;;;;53.88;21.92;;;;;;;;;;5030920;28;20041;-62
2022/12/11 13:05:26;;;;;;;63.33;23.08;;;;;;;;;;5031233;28;20107;-62
2022/12/11 13:07:54;;;;;;;59.70;22.30;;;;;;;;;;5031198;28;20176;-62
2022/12/11 13:10:22;;;;;;;58.22;22.05;;;;;;;;;;5030814;28;20439;-62
2022/12/11 13:12:48;;;;;;;60.20;22.10;;;;;;;;;;5030923;28;20523;-62
2022/12/11 13:15:25;;;;;;;54.85;22.05;;;;;;;;;;5031161;28;20498;-62
2022/12/11 13:17:51;;;;;;;60.55;21.23;;;;;;;;;;5030897;28;20147;-62
2022/12/11 13:20:18;;;;;;;62.58;23.27;;;;;;;;;;5029280;28;20045;-62
2022/12/11 13:22:48;;;;;;;55.42;20.17;;;;;;;;;;5030932;28;20471;-62
2022/12/11 13:25:23;;;;;;;58.35;21.40;;;;;;;;;;5030568;28;20116;-62
2022/12/11 13:27:49;;;;;;;56.13;20.35;;;;;;;;;;5030754;28;20380;-62
2022/12/11 13:30:15;;;;;;;61.83;23.27;;;;;;;;;;5030936;28;20041;-62
2022/12/11 13:33:02;;;;;;;59.55;22.38;;;;;;;;;;5030411;28;20056;-62
2022/12/11 13:35:28;;;;;;;54.60;21.77;;;;;;;;;;5030427;28;20068;-62
2022/12/11 13:37:55;;;;;;;52.67;21.20;;;;;;;;;;5030823;28;20037;-62
2022/12/11 13:40:23;;;;;;;55.47;22.00;;;;;;;;;;5030471;28;20376;-62
2022/12/11 13:42:54;;;;;;;54.35;22.23;;;;;;;;;;5030573;28;20472;-62
2022/12/11 13:45:27;;;;;;;58.55;23.88;;;;;;;;;;5030317;28;20030;-62
2022/12/11 13:47:53;;;;;;;61.85;23.25;;;;;;;;;;5029999;28;20128;-62
2022/12/11 13:50:30;;;;;;;59.38;25.13;;;;;;;;;;5030529;28;20037;-62
2022/12/11 13:52:58;;;;;;;57.25;23.05;;;;;;;;;;5030305;28;20045;-62
2022/12/11 13:55:26;;;;;;;62.38;22.88;;;;;;;;;;5030101;28;20033;-62
2022/12/11 13:57:52;;;;;;;52.53;20.63;;;;;;;;;;5029959;28;20044;-62
2022/12/11 14:00:26;;;;;;;52.35;20.83;;;;;;;;;;5028882;28;20068;-62
2022/12/11 14:02:54;;;;;;;45.08;20.17;;;;;;;;;;5029887;28;20378;-62
2022/12/11 14:05:21;;;;;;;47.42;21.60;;;;;;;;;;5030408;28;20416;-62
2022/12/11 14:07:48;;;;;;;48.13;20.00;;;;;;;;;;5029652;28;20103;-62
2022/12/11 14:10:17;;;;;;;44.05;19.88;;;;;;;;;;5029920;28;20045;-62
2022/12/11 14:12:58;;;;;;;45.72;19.45;;;;;;;;;;5029631;28;20056;-62
2022/12/11 14:15:25;;;;;;;43.45;18.30;;;;;;;;;;5031703;28;20041;-62
2022/12/11 14:17:51;;;;;;;41.25;18.75;;;;;;;;;;5029700;28;20085;-62
2022/12/11 14:20:27;;;;;;;44.95;19.50;;;;;;;;;;5030045;28;20571;-62
2022/12/11 14:23:05;;;;;;;44.08;19.10;;;;;;;;;;5029757;28;20057;-62
2022/12/11 14:25:31;;;;;;;43.70;18.48;;;;;;;;;;5029278;28;20124;-62
2022/12/11 14:27:57;;;;;;;41.55;17.85;;;;;;;;;;5029605;28;20172;-62
2022/12/11 14:30:34;;;;;;;39.05;18.38;;;;;;;;;;5029859;28;20309;-62
2022/12/11 14:33:02;;;;;;;43.55;19.30;;;;;;;;;;5028915;28;20099;-62
2022/12/11 14:35:37;;;;;;;43.95;18.83;;;;;;;;;;5029679;28;20099;-62
2022/12/11 14:38:11;;;;;;;41.03;18.48;;;;;;;;;;5029666;28;20038;-62